createdAt,value
2022-12-19T00:00:14.931Z,59.20
2022-12-19T00:01:10.695Z,55.00
2022-12-19T00:02:09.766Z,56.10
2022-12-19T00:03:09.680Z,56.80
2022-12-19T00:04:09.621Z,54.00
2022-12-19T00:05:09.617Z,59.80
2022-12-19T00:06:09.615Z,65.00
2022-12-19T00:07:09.561Z,62.30
2022-12-19T00:08:16.965Z,59.40
2022-12-19T00:09:10.550Z,58.00
2022-12-19T00:10:09.499Z,53.60
2022-12-19T00:11:09.537Z,61.40
2022-12-19T00:12:12.219Z,65.80
2022-12-19T00:13:10.519Z,59.20
2022-12-19T00:14:09.476Z,54.80
2022-12-19T00:15:09.462Z,67.80
2022-12-19T00:16:09.501Z,66.30
2022-12-19T00:17:09.443Z,62.00
2022-12-19T00:18:09.520Z,62.10
2022-12-19T00:19:09.440Z,64.00
2022-12-19T00:20:09.399Z,58.30
2022-12-19T00:21:09.392Z,63.20
2022-12-19T00:22:11.265Z,66.70
2022-12-19T00:23:09.387Z,66.80
2022-12-19T00:24:21.180Z,69.20
2022-12-19T00:25:10.360Z,63.40
2022-12-19T00:26:09.319Z,64.40
2022-12-19T00:27:09.304Z,65.30
2022-12-19T00:28:09.302Z,59.30
2022-12-19T00:29:14.082Z,73.20
2022-12-19T00:30:10.284Z,69.30
2022-12-19T00:31:09.302Z,74.30
2022-12-19T00:32:09.274Z,66.10
2022-12-19T00:33:09.256Z,66.70
2022-12-19T00:34:09.219Z,69.00
2022-12-19T00:35:09.197Z,69.40
2022-12-19T00:36:09.212Z,63.80
2022-12-19T00:37:09.176Z,73.80
2022-12-19T00:38:09.133Z,81.50
2022-12-19T00:39:09.188Z,82.30
2022-12-19T00:40:09.106Z,76.30
2022-12-19T00:41:09.151Z,70.40
2022-12-19T00:42:09.213Z,74.70
2022-12-19T00:43:09.086Z,71.10
2022-12-19T00:44:09.084Z,65.80
2022-12-19T00:45:09.066Z,75.80
2022-12-19T00:46:09.031Z,78.90
2022-12-19T00:47:09.072Z,75.60
2022-12-19T00:48:09.037Z,73.30
2022-12-19T00:49:09.046Z,72.60
2022-12-19T00:50:09.003Z,71.90
2022-12-19T00:51:08.996Z,67.40
2022-12-19T00:52:08.948Z,84.80
2022-12-19T00:53:08.986Z,87.10
2022-12-19T00:54:08.974Z,80.90
2022-12-19T00:55:08.956Z,77.30
2022-12-19T00:56:09.927Z,74.90
2022-12-19T00:57:08.910Z,77.00
2022-12-19T00:58:08.859Z,70.30
2022-12-19T00:59:08.913Z,83.50
2022-12-19T01:00:08.964Z,78.90
2022-12-19T01:01:08.906Z,76.60
2022-12-19T01:02:08.961Z,73.90
2022-12-19T01:03:08.883Z,73.40
2022-12-19T01:05:09.934Z,72.10
2022-12-19T01:06:08.761Z,79.60
2022-12-19T01:07:08.798Z,87.00
2022-12-19T01:08:08.759Z,78.90
2022-12-19T01:09:08.751Z,75.30
2022-12-19T01:10:08.711Z,69.10
2022-12-19T01:11:08.786Z,77.10
2022-12-19T01:12:08.682Z,79.60
2022-12-19T01:13:08.718Z,80.90
2022-12-19T01:14:08.684Z,80.50
2022-12-19T01:15:08.675Z,80.80
2022-12-19T01:16:08.742Z,75.40
2022-12-19T01:17:08.759Z,79.50
2022-12-19T01:18:08.593Z,79.90
2022-12-19T01:19:08.642Z,80.50
2022-12-19T01:20:08.580Z,70.30
2022-12-19T01:21:08.610Z,73.60
2022-12-19T01:22:08.570Z,69.90
2022-12-19T01:23:08.679Z,78.80
2022-12-19T01:24:08.525Z,73.50
2022-12-19T01:25:08.570Z,79.90
2022-12-19T01:26:08.520Z,75.40
2022-12-19T01:27:08.505Z,69.90
2022-12-19T01:28:08.492Z,75.10
2022-12-19T01:29:08.515Z,76.60
2022-12-19T01:30:08.446Z,76.90
2022-12-19T01:31:08.482Z,74.50
2022-12-19T01:32:08.463Z,73.00
2022-12-19T01:33:08.460Z,70.00
2022-12-19T01:34:08.414Z,69.50
2022-12-19T01:35:11.379Z,76.90
2022-12-19T01:36:09.393Z,73.40
2022-12-19T01:37:08.377Z,80.20
2022-12-19T01:38:08.944Z,75.40
2022-12-19T01:39:08.383Z,75.90
2022-12-19T01:40:08.307Z,72.30
2022-12-19T01:41:08.374Z,75.40
2022-12-19T01:42:08.316Z,76.30
2022-12-19T01:43:08.307Z,78.70
2022-12-19T01:44:08.284Z,75.00
2022-12-19T01:45:08.268Z,73.40
2022-12-19T01:46:08.287Z,69.70
2022-12-19T01:47:08.305Z,70.40
2022-12-19T01:48:08.254Z,79.50
2022-12-19T01:49:08.246Z,74.60
2022-12-19T01:50:08.206Z,78.90
2022-12-19T01:51:08.194Z,68.20
2022-12-19T01:52:08.183Z,69.90
2022-12-19T01:53:08.282Z,70.40
2022-12-19T01:54:08.129Z,74.20
2022-12-19T01:55:08.167Z,71.40
2022-12-19T01:56:14.812Z,71.20
2022-12-19T01:57:08.082Z,72.60
2022-12-19T01:58:08.045Z,75.70
2022-12-19T01:59:08.201Z,76.80
2022-12-19T02:00:08.018Z,71.00
2022-12-19T02:01:08.140Z,72.70
2022-12-19T02:02:08.148Z,67.40
2022-12-19T02:03:08.031Z,74.40
2022-12-19T02:04:08.006Z,77.40
2022-12-19T02:05:08.022Z,69.00
2022-12-19T02:06:07.942Z,69.90
2022-12-19T02:07:16.172Z,72.60
2022-12-19T02:08:08.922Z,64.70
2022-12-19T02:09:07.959Z,75.30
2022-12-19T02:10:07.910Z,68.00
2022-12-19T02:11:08.023Z,73.80
2022-12-19T02:12:07.865Z,83.60
2022-12-19T02:13:07.908Z,82.70
2022-12-19T02:14:07.874Z,73.10
2022-12-19T02:15:07.845Z,73.20
2022-12-19T02:16:07.863Z,69.10
2022-12-19T02:17:07.860Z,68.50
2022-12-19T02:18:07.795Z,76.00
2022-12-19T02:19:07.823Z,75.30
2022-12-19T02:20:07.762Z,81.90
2022-12-19T02:21:07.803Z,68.20
2022-12-19T02:22:07.756Z,76.60
2022-12-19T02:23:07.780Z,74.00
2022-12-19T02:24:07.737Z,71.90
2022-12-19T02:25:07.721Z,76.00
2022-12-19T02:26:07.683Z,66.50
2022-12-19T02:27:07.719Z,78.00
2022-12-19T02:28:07.691Z,82.70
2022-12-19T02:29:07.708Z,92.80
2022-12-19T02:30:07.629Z,78.40
2022-12-19T02:31:16.444Z,71.40
2022-12-19T02:32:08.658Z,76.90
2022-12-19T02:33:07.643Z,69.20
2022-12-19T02:34:07.605Z,72.30
2022-12-19T02:35:07.618Z,78.80
2022-12-19T02:36:07.577Z,90.50
2022-12-19T02:37:07.571Z,82.10
2022-12-19T02:38:08.426Z,67.80
2022-12-19T02:39:07.557Z,74.60
2022-12-19T02:40:07.503Z,70.30
2022-12-19T02:41:07.589Z,70.20
2022-12-19T02:42:07.501Z,81.00
2022-12-19T02:43:07.503Z,76.10
2022-12-19T02:44:07.509Z,75.20
2022-12-19T02:45:07.437Z,73.20
2022-12-19T02:46:07.571Z,71.60
2022-12-19T02:47:07.471Z,63.70
2022-12-19T02:48:08.958Z,78.10
2022-12-19T02:49:07.416Z,77.90
2022-12-19T02:50:07.432Z,70.90
2022-12-19T02:51:07.374Z,73.20
2022-12-19T02:52:07.408Z,67.80
2022-12-19T02:53:07.362Z,65.80
2022-12-19T02:54:07.361Z,75.90
2022-12-19T02:55:07.338Z,93.80
2022-12-19T02:56:10.426Z,74.70
2022-12-19T02:57:07.310Z,77.10
2022-12-19T02:58:07.335Z,73.50
2022-12-19T02:59:07.300Z,65.70
2022-12-19T03:00:07.283Z,72.40
2022-12-19T03:01:07.270Z,81.20
2022-12-19T03:02:07.511Z,75.20
2022-12-19T03:03:07.385Z,69.00
2022-12-19T03:04:07.255Z,65.60
2022-12-19T03:05:07.219Z,62.90
2022-12-19T03:06:07.190Z,76.60
2022-12-19T03:07:07.187Z,95.10
2022-12-19T03:08:07.171Z,85.00
2022-12-19T03:09:07.157Z,70.60
2022-12-19T03:10:07.178Z,69.40
2022-12-19T03:11:07.133Z,62.50
2022-12-19T03:12:07.149Z,63.60
2022-12-19T03:13:07.079Z,74.70
2022-12-19T03:14:07.095Z,71.30
2022-12-19T03:15:07.082Z,67.70
2022-12-19T03:16:07.100Z,66.00
2022-12-19T03:17:07.128Z,69.70
2022-12-19T03:18:07.050Z,62.40
2022-12-19T03:19:07.040Z,68.70
2022-12-19T03:20:07.019Z,74.40
2022-12-19T03:21:07.056Z,69.30
2022-12-19T03:22:07.017Z,65.10
2022-12-19T03:23:07.069Z,71.90
2022-12-19T03:24:06.997Z,63.30
2022-12-19T03:25:06.934Z,64.00
2022-12-19T03:26:06.939Z,71.60
2022-12-19T03:27:06.925Z,74.60
2022-12-19T03:28:06.913Z,72.20
2022-12-19T03:29:06.943Z,68.80
2022-12-19T03:30:06.920Z,73.80
2022-12-19T03:31:06.911Z,60.60
2022-12-19T03:32:06.864Z,67.30
2022-12-19T03:33:06.851Z,70.50
2022-12-19T03:34:07.775Z,73.60
2022-12-19T03:35:06.834Z,66.50
2022-12-19T03:36:06.832Z,71.70
2022-12-19T03:37:06.781Z,63.60
2022-12-19T03:38:06.793Z,60.10
2022-12-19T03:39:06.772Z,69.70
2022-12-19T03:40:06.759Z,73.40
2022-12-19T03:41:06.856Z,69.20
2022-12-19T03:42:06.766Z,70.00
2022-12-19T03:43:06.702Z,62.10
2022-12-19T03:44:06.731Z,61.70
2022-12-19T03:45:06.671Z,78.50
2022-12-19T03:46:06.723Z,70.20
2022-12-19T03:47:06.697Z,67.10
2022-12-19T03:48:06.964Z,62.20
2022-12-19T03:49:06.640Z,68.30
2022-12-19T03:50:06.658Z,61.20
2022-12-19T03:51:06.593Z,57.60
2022-12-19T03:52:06.636Z,69.20
2022-12-19T03:53:06.672Z,69.00
2022-12-19T03:54:06.574Z,69.80
2022-12-19T03:55:06.561Z,64.20
2022-12-19T03:56:06.553Z,61.60
2022-12-19T03:57:06.540Z,59.50
2022-12-19T03:58:06.552Z,68.00
2022-12-19T03:59:06.522Z,87.40
2022-12-19T04:00:06.544Z,66.90
2022-12-19T04:01:06.491Z,69.00
2022-12-19T04:02:06.618Z,63.80
2022-12-19T04:03:06.533Z,59.70
2022-12-19T04:04:06.472Z,65.20
2022-12-19T04:05:06.426Z,68.00
2022-12-19T04:06:06.420Z,60.60
2022-12-19T04:07:06.414Z,62.30
2022-12-19T04:08:06.392Z,65.80
2022-12-19T04:09:06.385Z,57.90
2022-12-19T04:10:06.426Z,61.70
2022-12-19T04:11:06.358Z,64.90
2022-12-19T04:12:06.372Z,66.60
2022-12-19T04:13:06.300Z,60.60
2022-12-19T04:14:06.317Z,65.50
2022-12-19T04:15:06.307Z,57.50
2022-12-19T04:16:06.409Z,57.90
2022-12-19T04:17:06.310Z,64.30
2022-12-19T04:18:06.294Z,65.50
2022-12-19T04:19:06.242Z,67.80
2022-12-19T04:20:06.237Z,68.20
2022-12-19T04:21:06.219Z,57.20
2022-12-19T04:22:06.238Z,56.10
2022-12-19T04:23:06.193Z,67.90
2022-12-19T04:24:06.218Z,65.80
2022-12-19T04:25:06.142Z,63.70
2022-12-19T04:26:06.153Z,64.40
2022-12-19T04:27:06.146Z,66.50
2022-12-19T04:28:06.135Z,55.50
2022-12-19T04:29:06.150Z,61.00
2022-12-19T04:30:06.130Z,69.00
2022-12-19T04:31:06.072Z,69.60
2022-12-19T04:32:06.100Z,59.60
2022-12-19T04:33:06.032Z,65.60
2022-12-19T04:34:06.051Z,55.00
2022-12-19T04:35:06.070Z,64.30
2022-12-19T04:36:06.051Z,68.20
2022-12-19T04:37:05.986Z,67.00
2022-12-19T04:38:05.997Z,63.20
2022-12-19T04:39:05.997Z,67.30
2022-12-19T04:40:05.974Z,54.00
2022-12-19T04:41:05.992Z,56.20
2022-12-19T04:42:05.964Z,73.10
2022-12-19T04:43:05.930Z,68.00
2022-12-19T04:44:05.945Z,60.10
2022-12-19T04:45:05.875Z,71.90
2022-12-19T04:46:05.929Z,70.30
2022-12-19T04:47:05.983Z,65.50
2022-12-19T04:48:05.865Z,69.60
2022-12-19T04:49:05.900Z,58.80
2022-12-19T04:50:05.860Z,56.90
2022-12-19T04:51:05.797Z,69.40
2022-12-19T04:52:05.833Z,67.50
2022-12-19T04:53:05.809Z,71.30
2022-12-19T04:54:05.789Z,65.20
2022-12-19T04:55:05.769Z,60.90
2022-12-19T04:56:05.757Z,59.90
2022-12-19T04:57:05.747Z,63.30
2022-12-19T04:58:05.758Z,67.20
2022-12-19T04:59:05.725Z,77.80
2022-12-19T05:00:05.744Z,65.20
2022-12-19T05:01:05.657Z,67.10
2022-12-19T05:02:05.749Z,62.90
2022-12-19T05:03:05.748Z,62.70
2022-12-19T05:04:05.669Z,68.10
2022-12-19T05:05:05.655Z,66.70
2022-12-19T05:06:05.657Z,62.40
2022-12-19T05:07:05.580Z,67.80
2022-12-19T05:08:05.601Z,64.30
2022-12-19T05:09:05.588Z,61.60
2022-12-19T05:10:05.595Z,70.70
2022-12-19T05:11:05.575Z,66.90
2022-12-19T05:12:05.576Z,68.70
2022-12-19T05:13:05.503Z,69.00
2022-12-19T05:14:05.519Z,64.50
2022-12-19T05:15:05.508Z,66.60
2022-12-19T05:16:05.619Z,67.00
2022-12-19T05:17:05.498Z,63.70
2022-12-19T05:18:05.485Z,72.20
2022-12-19T05:19:05.419Z,70.00
2022-12-19T05:20:05.481Z,70.10
2022-12-19T05:21:05.397Z,67.40
2022-12-19T05:22:05.408Z,67.50
2022-12-19T05:23:09.604Z,67.40
2022-12-19T05:24:06.408Z,70.90
2022-12-19T05:25:05.351Z,72.40
2022-12-19T05:26:05.367Z,73.10
2022-12-19T05:27:05.345Z,65.70
2022-12-19T05:28:05.332Z,67.80
2022-12-19T05:29:05.437Z,76.00
2022-12-19T05:30:05.348Z,64.30
2022-12-19T05:31:05.310Z,67.70
2022-12-19T05:32:05.311Z,67.80
2022-12-19T05:33:05.241Z,67.90
2022-12-19T05:34:05.262Z,66.80
2022-12-19T05:35:05.284Z,64.70
2022-12-19T05:36:05.233Z,72.50
2022-12-19T05:37:05.233Z,70.70
2022-12-19T05:38:05.229Z,64.90
2022-12-19T05:39:05.177Z,64.90
2022-12-19T05:40:05.172Z,64.80
2022-12-19T05:41:05.196Z,63.90
2022-12-19T05:42:08.487Z,68.70
2022-12-19T05:43:06.121Z,66.70
2022-12-19T05:44:05.154Z,66.40
2022-12-19T05:45:05.086Z,67.30
2022-12-19T05:46:05.138Z,64.30
2022-12-19T05:47:05.101Z,61.10
2022-12-19T05:48:05.055Z,65.30
2022-12-19T05:49:05.041Z,61.20
2022-12-19T05:50:05.050Z,63.50
2022-12-19T05:51:04.989Z,59.90
2022-12-19T05:52:05.034Z,60.60
2022-12-19T05:53:04.984Z,60.00
2022-12-19T05:54:04.974Z,61.40
2022-12-19T05:55:04.963Z,67.10
2022-12-19T05:56:04.963Z,65.00
2022-12-19T05:57:04.931Z,60.00
2022-12-19T05:58:04.959Z,59.40
2022-12-19T05:59:04.995Z,58.30
2022-12-19T06:00:04.922Z,62.00
2022-12-19T06:01:04.855Z,59.30
2022-12-19T06:02:05.029Z,61.90
2022-12-19T06:03:04.900Z,67.80
2022-12-19T06:04:04.849Z,75.70
2022-12-19T06:05:04.852Z,59.60
2022-12-19T06:06:04.842Z,69.30
2022-12-19T06:07:04.777Z,67.20
2022-12-19T06:08:04.811Z,66.20
2022-12-19T06:09:04.756Z,64.60
2022-12-19T06:10:04.769Z,64.50
2022-12-19T06:11:04.864Z,75.50
2022-12-19T06:12:04.765Z,75.70
2022-12-19T06:13:04.706Z,73.60
2022-12-19T06:14:04.719Z,65.10
2022-12-19T06:15:04.698Z,67.90
2022-12-19T06:16:04.700Z,63.60
2022-12-19T06:17:04.705Z,67.60
2022-12-19T06:18:04.684Z,77.70
2022-12-19T06:19:04.614Z,67.80
2022-12-19T06:20:04.655Z,61.40
2022-12-19T06:21:04.600Z,64.90
2022-12-19T06:22:04.608Z,60.40
2022-12-19T06:23:04.704Z,58.20
2022-12-19T06:24:04.577Z,65.00
2022-12-19T06:25:04.566Z,68.40
2022-12-19T06:26:04.610Z,57.50
2022-12-19T06:27:04.508Z,61.90
2022-12-19T06:28:04.528Z,57.40
2022-12-19T06:29:04.625Z,59.40
2022-12-19T06:30:04.525Z,63.20
2022-12-19T06:31:04.510Z,66.10
2022-12-19T06:32:04.496Z,61.50
2022-12-19T06:33:04.429Z,60.90
2022-12-19T06:34:04.442Z,57.40
2022-12-19T06:35:05.061Z,62.00
2022-12-19T06:36:04.419Z,63.10
2022-12-19T06:37:08.089Z,70.20
2022-12-19T06:38:04.416Z,65.80
2022-12-19T06:39:04.348Z,64.20
2022-12-19T06:40:04.386Z,63.90
2022-12-19T06:41:04.440Z,60.40
2022-12-19T06:42:04.333Z,61.00
2022-12-19T06:43:04.331Z,59.00
2022-12-19T06:44:04.336Z,62.60
2022-12-19T06:45:04.270Z,62.20
2022-12-19T06:46:04.308Z,70.20
2022-12-19T06:47:04.378Z,64.10
2022-12-19T06:48:04.263Z,64.70
2022-12-19T06:49:04.247Z,75.10
2022-12-19T06:50:04.278Z,76.30
2022-12-19T06:51:04.191Z,67.90
2022-12-19T06:52:08.988Z,67.20
2022-12-19T06:53:05.192Z,63.40
2022-12-19T06:54:04.195Z,67.20
2022-12-19T06:55:04.170Z,73.40
2022-12-19T06:56:04.153Z,74.90
2022-12-19T06:57:04.139Z,69.60
2022-12-19T06:58:04.160Z,67.30
2022-12-19T06:59:04.212Z,69.70
2022-12-19T07:00:04.076Z,69.60
2022-12-19T07:01:04.173Z,77.50
2022-12-19T07:02:04.192Z,86.50
2022-12-19T07:03:04.117Z,75.10
2022-12-19T07:04:04.050Z,75.60
2022-12-19T07:05:04.071Z,78.00
2022-12-19T07:06:03.994Z,74.80
2022-12-19T07:07:04.030Z,83.40
2022-12-19T07:08:03.968Z,78.80
2022-12-19T07:09:04.020Z,87.60
2022-12-19T07:10:03.971Z,83.80
2022-12-19T07:11:04.028Z,83.70
2022-12-19T07:12:03.941Z,89.10
2022-12-19T07:13:03.932Z,89.90
2022-12-19T07:14:03.885Z,84.90
2022-12-19T07:15:03.928Z,91.90
2022-12-19T07:16:03.932Z,84.30
2022-12-19T07:17:03.910Z,93.20
2022-12-19T07:18:03.836Z,92.00
2022-12-19T07:19:03.873Z,94.70
2022-12-19T07:20:03.820Z,94.90
2022-12-19T07:21:03.850Z,103.60
2022-12-19T07:22:03.819Z,101.90
2022-12-19T07:23:03.911Z,101.10
2022-12-19T07:24:03.784Z,93.50
2022-12-19T07:25:03.782Z,97.20
2022-12-19T07:26:03.727Z,117.70
2022-12-19T07:27:03.773Z,106.40
2022-12-19T07:28:03.698Z,97.40
2022-12-19T07:29:03.785Z,99.00
2022-12-19T07:30:03.703Z,85.60
2022-12-19T07:31:03.689Z,88.40
2022-12-19T07:32:03.683Z,83.60
2022-12-19T07:33:03.685Z,80.50
2022-12-19T07:34:03.647Z,93.50
2022-12-19T07:35:03.667Z,85.20
2022-12-19T07:36:03.625Z,85.20
2022-12-19T07:37:03.607Z,95.20
2022-12-19T07:38:03.571Z,104.40
2022-12-19T07:39:03.637Z,102.80
2022-12-19T07:40:03.541Z,93.10
2022-12-19T07:41:03.711Z,101.10
2022-12-19T07:42:03.538Z,94.50
2022-12-19T07:43:03.530Z,95.40
2022-12-19T07:44:03.517Z,103.90
2022-12-19T07:45:03.514Z,113.60
2022-12-19T07:46:03.516Z,102.20
2022-12-19T07:47:03.550Z,99.00
2022-12-19T07:48:03.475Z,95.80
2022-12-19T07:49:03.451Z,106.60
2022-12-19T07:50:03.414Z,94.70
2022-12-19T07:51:03.448Z,101.40
2022-12-19T07:52:03.409Z,113.60
2022-12-19T07:53:03.559Z,113.40
2022-12-19T07:54:03.396Z,117.50
2022-12-19T07:55:03.378Z,112.90
2022-12-19T07:56:03.363Z,111.30
2022-12-19T07:57:03.346Z,118.10
2022-12-19T07:58:03.303Z,126.70
2022-12-19T07:59:03.368Z,124.80
2022-12-19T08:00:03.281Z,128.30
2022-12-19T08:01:03.375Z,138.30
2022-12-19T08:02:03.444Z,123.10
2022-12-19T08:03:03.285Z,126.60
2022-12-19T08:04:03.265Z,128.80
2022-12-19T08:05:03.352Z,129.90
2022-12-19T08:06:03.196Z,141.00
2022-12-19T08:07:03.260Z,131.00
2022-12-19T08:08:03.168Z,125.20
2022-12-19T08:09:03.213Z,133.00
2022-12-19T08:10:03.174Z,131.70
2022-12-19T08:11:03.183Z,141.10
2022-12-19T08:12:03.147Z,131.90
2022-12-19T08:13:03.125Z,123.90
2022-12-19T08:14:03.089Z,117.80
2022-12-19T08:15:03.135Z,112.90
2022-12-19T08:16:03.067Z,121.60
2022-12-19T08:17:20.796Z,134.60
2022-12-19T08:18:04.063Z,129.20
2022-12-19T08:19:03.062Z,121.90
2022-12-19T08:20:03.029Z,105.00
2022-12-19T08:21:03.059Z,115.80
2022-12-19T08:22:03.017Z,104.50
2022-12-19T08:23:03.122Z,115.20
2022-12-19T08:24:02.985Z,136.00
2022-12-19T08:25:02.974Z,149.00
2022-12-19T08:26:02.939Z,127.20
2022-12-19T08:27:02.978Z,138.50
2022-12-19T08:28:02.910Z,114.60
2022-12-19T08:29:02.986Z,119.20
2022-12-19T08:30:02.906Z,127.50
2022-12-19T08:31:02.944Z,133.20
2022-12-19T08:32:02.895Z,143.70
2022-12-19T08:33:02.870Z,135.30
2022-12-19T08:34:02.829Z,143.20
2022-12-19T08:35:02.900Z,150.50
2022-12-19T08:36:02.830Z,123.10
2022-12-19T08:37:02.825Z,150.30
2022-12-19T08:38:02.775Z,127.60
2022-12-19T08:39:02.829Z,134.80
2022-12-19T08:40:02.753Z,119.80
2022-12-19T08:41:02.830Z,100.80
2022-12-19T08:42:02.753Z,119.80
2022-12-19T08:43:02.741Z,133.70
2022-12-19T08:44:02.723Z,111.60
2022-12-19T08:45:02.758Z,118.30
2022-12-19T08:46:02.772Z,119.70
2022-12-19T08:47:02.820Z,113.90
2022-12-19T08:48:02.675Z,122.60
2022-12-19T08:49:02.705Z,135.50
2022-12-19T08:50:02.660Z,109.80
2022-12-19T08:51:02.635Z,117.10
2022-12-19T08:52:02.586Z,117.90
2022-12-19T08:53:02.660Z,115.70
2022-12-19T08:54:02.593Z,120.00
2022-12-19T08:55:03.576Z,127.10
2022-12-19T08:56:02.572Z,107.60
2022-12-19T08:57:02.553Z,119.50
2022-12-19T08:58:02.517Z,117.60
2022-12-19T08:59:02.663Z,111.40
2022-12-19T09:00:02.487Z,97.10
2022-12-19T09:01:05.568Z,101.40
2022-12-19T09:02:02.762Z,113.80
2022-12-19T09:03:02.632Z,128.80
2022-12-19T09:05:30.917Z,103.50
2022-12-19T09:05:58.726Z,106.10
2022-12-19T09:06:09.056Z,87.20
2022-12-19T09:07:03.447Z,87.20
2022-12-19T09:08:02.379Z,94.10
2022-12-19T09:09:02.427Z,111.10
2022-12-19T09:10:03.110Z,95.50
2022-12-19T09:11:02.482Z,99.60
2022-12-19T09:12:02.345Z,79.10
2022-12-19T09:13:02.337Z,83.50
2022-12-19T09:14:02.298Z,80.80
2022-12-19T09:15:02.338Z,93.10
2022-12-19T09:16:02.288Z,76.50
2022-12-19T09:17:03.959Z,91.20
2022-12-19T09:18:02.268Z,102.60
2022-12-19T09:19:02.260Z,90.50
2022-12-19T09:20:02.249Z,81.90
2022-12-19T09:21:02.231Z,71.50
2022-12-19T09:22:02.194Z,75.10
2022-12-19T09:23:02.272Z,98.70
2022-12-19T09:24:07.709Z,85.20
2022-12-19T09:25:03.184Z,82.30
2022-12-19T09:26:02.164Z,66.00
2022-12-19T09:27:02.185Z,63.70
2022-12-19T09:28:26.808Z,67.60
2022-12-19T09:29:03.192Z,88.10
2022-12-19T09:30:02.314Z,83.80
2022-12-19T09:31:02.153Z,74.60
2022-12-19T09:32:02.080Z,66.20
2022-12-19T09:33:02.073Z,59.70
2022-12-19T09:34:02.042Z,86.20
2022-12-19T09:35:02.132Z,93.20
2022-12-19T09:36:02.001Z,77.50
2022-12-19T09:37:02.043Z,75.20
2022-12-19T09:38:02.003Z,64.60
2022-12-19T09:39:01.984Z,68.90
2022-12-19T09:40:01.958Z,94.20
2022-12-19T09:41:02.016Z,111.80
2022-12-19T09:42:01.948Z,70.60
2022-12-19T09:43:01.958Z,103.80
2022-12-19T09:44:02.219Z,96.60
2022-12-19T09:45:01.919Z,104.60
2022-12-19T09:46:01.908Z,69.80
2022-12-19T09:47:01.970Z,69.60
2022-12-19T09:48:01.874Z,102.10
2022-12-19T09:49:01.905Z,122.00
2022-12-19T09:50:01.851Z,69.30
2022-12-19T09:51:09.952Z,104.40
2022-12-19T09:52:02.967Z,121.20
2022-12-19T09:53:01.803Z,83.80
2022-12-19T09:54:01.769Z,77.00
2022-12-19T09:55:01.817Z,71.90
2022-12-19T09:56:01.787Z,85.50
2022-12-19T09:57:01.753Z,118.60
2022-12-19T09:58:01.831Z,107.60
2022-12-19T09:59:01.760Z,74.30
2022-12-19T10:00:01.680Z,74.90
2022-12-19T10:01:01.728Z,77.40
2022-12-19T10:02:01.816Z,117.60
2022-12-19T10:03:01.892Z,101.50
2022-12-19T10:04:01.750Z,66.60
2022-12-19T10:05:04.901Z,70.20
2022-12-19T10:06:58.113Z,92.10
2022-12-19T10:07:21.191Z,115.20
2022-12-19T10:08:08.938Z,100.10
2022-12-19T10:09:35.232Z,58.10
2022-12-19T10:12:34.516Z,60.60
2022-12-19T10:12:38.645Z,80.60
2022-12-19T10:12:43.379Z,118.70
2022-12-19T10:13:06.200Z,51.80
2022-12-19T10:14:02.607Z,52.80
2022-12-19T10:15:01.662Z,92.90
2022-12-19T10:16:01.501Z,92.70
2022-12-19T10:17:23.653Z,84.60
2022-12-19T10:18:02.463Z,50.80
2022-12-19T10:19:01.457Z,50.60
2022-12-19T10:20:01.444Z,96.70
2022-12-19T10:21:01.547Z,88.10
2022-12-19T10:22:18.194Z,77.40
2022-12-19T10:23:02.437Z,52.80
2022-12-19T10:24:01.369Z,48.00
2022-12-19T10:25:02.825Z,50.00
2022-12-19T10:26:02.398Z,109.20
2022-12-19T10:27:01.351Z,78.60
2022-12-19T10:28:01.341Z,46.70
2022-12-19T10:29:01.355Z,46.60
2022-12-19T10:30:01.311Z,65.60
2022-12-19T10:31:07.283Z,94.30
2022-12-19T10:32:02.427Z,68.70
2022-12-19T10:33:01.294Z,45.80
2022-12-19T10:34:01.228Z,44.90
2022-12-19T10:35:01.330Z,96.10
2022-12-19T10:36:02.021Z,78.80
2022-12-19T10:37:26.805Z,46.20
2022-12-19T10:38:02.339Z,45.00
2022-12-19T10:39:01.184Z,52.40
2022-12-19T10:40:01.166Z,97.70
2022-12-19T10:41:01.161Z,54.70
2022-12-19T10:42:01.147Z,41.30
2022-12-19T10:43:02.615Z,43.10
2022-12-19T10:44:02.260Z,81.20
2022-12-19T10:45:01.156Z,77.80
2022-12-19T10:46:01.087Z,46.60
2022-12-19T10:47:01.403Z,39.80
2022-12-19T10:48:01.054Z,40.40
2022-12-19T10:49:01.090Z,93.90
2022-12-19T10:50:07.310Z,50.90
2022-12-19T10:51:06.567Z,46.90
2022-12-19T10:52:02.017Z,42.10
2022-12-19T10:53:01.013Z,40.50
2022-12-19T10:54:00.984Z,83.20
2022-12-19T10:55:01.005Z,59.70
2022-12-19T10:56:01.113Z,51.90
2022-12-19T10:57:00.971Z,47.50
2022-12-19T10:58:00.959Z,46.70
2022-12-19T10:59:00.952Z,75.00
2022-12-19T11:00:00.887Z,72.60
2022-12-19T11:01:00.927Z,64.10
2022-12-19T11:02:03.148Z,47.40
2022-12-19T11:03:00.992Z,41.80
2022-12-19T11:04:00.874Z,63.50
2022-12-19T11:05:00.916Z,77.30
2022-12-19T11:06:00.804Z,45.30
2022-12-19T11:07:00.842Z,41.50
2022-12-19T11:08:00.868Z,80.70
2022-12-19T11:09:00.822Z,66.40
2022-12-19T11:10:42.706Z,40.70
2022-12-19T11:12:09.195Z,43.30
2022-12-19T11:16:06.591Z,46.40
2022-12-19T11:18:41.567Z,44.80
2022-12-19T11:19:19.975Z,87.90
2022-12-19T11:21:09.132Z,46.10
2022-12-19T11:21:27.062Z,85.60
2022-12-19T11:22:28.554Z,84.40
2022-12-19T11:27:08.439Z,47.00
2022-12-19T11:29:27.536Z,35.20
2022-12-19T11:29:31.226Z,66.40
2022-12-19T11:29:31.408Z,68.90
2022-12-19T11:29:39.513Z,33.60
2022-12-19T11:29:41.596Z,35.50
2022-12-19T11:30:35.208Z,31.20
2022-12-19T11:30:36.948Z,34.90
2022-12-19T11:30:43.548Z,62.70
2022-12-19T11:30:43.939Z,34.20
2022-12-19T11:30:44.126Z,85.40
2022-12-19T11:30:45.320Z,34.30
2022-12-19T11:31:51.015Z,97.20
2022-12-19T11:32:36.494Z,38.00
2022-12-19T11:33:01.524Z,31.90
2022-12-19T11:34:00.480Z,31.60
2022-12-19T11:35:00.456Z,72.40
2022-12-19T11:36:00.469Z,61.80
2022-12-19T11:37:00.519Z,31.50
2022-12-19T11:38:00.426Z,31.00
2022-12-19T11:39:00.393Z,33.10
2022-12-19T11:40:00.387Z,80.20
2022-12-19T11:41:00.369Z,44.90
2022-12-19T11:42:00.384Z,30.60
2022-12-19T11:43:42.065Z,31.80
2022-12-19T11:44:01.374Z,31.50
2022-12-19T11:45:00.328Z,32.80
2022-12-19T11:46:00.325Z,31.60
2022-12-19T11:47:00.294Z,59.90
2022-12-19T11:48:00.304Z,58.20
2022-12-19T11:49:00.263Z,37.70
2022-12-19T11:50:00.298Z,29.60
2022-12-19T11:51:00.224Z,31.30
2022-12-19T11:52:00.233Z,31.20
2022-12-19T11:53:05.654Z,32.50
2022-12-19T11:54:01.266Z,33.50
2022-12-19T11:55:00.214Z,47.90
2022-12-19T11:56:00.188Z,67.30
2022-12-19T11:57:00.119Z,49.50
2022-12-19T11:58:00.163Z,34.50
2022-12-19T11:59:00.142Z,34.00
2022-12-19T12:00:04.905Z,31.60
2022-12-19T12:01:01.109Z,58.60
2022-12-19T12:02:00.228Z,72.40
2022-12-19T12:03:00.083Z,32.50
2022-12-19T12:04:02.915Z,31.20
2022-12-19T12:05:00.174Z,31.20
2022-12-19T12:06:00.177Z,35.90
2022-12-19T12:07:00.146Z,71.50
2022-12-19T12:08:01.050Z,41.00
2022-12-19T12:10:40.966Z,30.10
2022-12-19T12:13:40.224Z,29.60
2022-12-19T12:17:41.934Z,30.10
2022-12-19T12:17:50.573Z,62.00
2022-12-19T12:20:46.234Z,55.00
2022-12-19T12:21:04.566Z,30.80
2022-12-19T12:23:46.532Z,30.90
2022-12-19T12:27:26.089Z,29.70
2022-12-19T12:27:50.106Z,29.30
2022-12-19T12:31:00.747Z,65.30
2022-12-19T12:31:07.991Z,29.90
2022-12-19T12:31:10.063Z,30.10
2022-12-19T12:31:18.282Z,29.60
2022-12-19T12:31:39.937Z,52.50
2022-12-19T12:31:42.239Z,80.70
2022-12-19T12:31:42.405Z,27.90
2022-12-19T12:31:44.955Z,28.10
2022-12-19T12:31:44.956Z,56.20
2022-12-19T12:31:46.588Z,30.30
2022-12-19T12:31:46.813Z,73.40
2022-12-19T12:31:50.064Z,29.30
2022-12-19T12:31:50.788Z,28.90
2022-12-19T12:35:16.781Z,28.20
2022-12-19T12:35:38.338Z,27.40
2022-12-19T12:35:55.105Z,52.40
2022-12-19T12:36:00.038Z,27.70
2022-12-19T12:37:03.590Z,27.40
2022-12-19T12:39:01.040Z,43.20
2022-12-19T12:40:00.317Z,58.80
2022-12-19T12:40:59.681Z,37.90
2022-12-19T12:41:59.572Z,29.20
2022-12-19T12:42:59.513Z,29.40
2022-12-19T12:43:59.542Z,31.10
2022-12-19T12:44:59.495Z,39.60
2022-12-19T12:45:59.524Z,63.10
2022-12-19T12:46:59.603Z,32.50
2022-12-19T12:48:00.239Z,30.20
2022-12-19T12:48:59.462Z,31.10
2022-12-19T12:49:59.486Z,39.60
2022-12-19T12:50:59.412Z,62.90
2022-12-19T12:51:59.430Z,29.80
2022-12-19T12:52:59.434Z,31.10
2022-12-19T12:53:59.438Z,30.80